Time;durP1;ratioP1;P1;durP2;ratioP2;P2;SDS_P1;SDS_P2;PMS_P1;PMS_P2;Temp;Humidity;BMP_temperature;BMP_pressure;BME280_temperature;BME280_humidity;BME280_pressure;Samples;Min_cycle;Max_cycle;Signal;HPM_P1;HPM_P2
2022/05/18 00:02:10;;;;;;;6.50;3.47;;;;;;;19.67;54.71;99218.19;7005389;28;20220;-81
2022/05/18 00:05:34;;;;;;;4.60;3.47;;;;;;;18.93;56.96;99221.41;7003115;28;20576;-81
2022/05/18 00:08:56;;;;;;;4.87;3.57;;;;;;;19.09;56.58;99228.75;6989068;28;20239;-80
2022/05/18 00:12:17;;;;;;;3.80;3.40;;;;;;;19.80;54.36;99232.31;7005830;28;20225;-81
2022/05/18 00:15:39;;;;;;;4.30;3.73;;;;;;;19.85;54.03;99223.34;7004867;28;20207;-82
2022/05/18 00:19:01;;;;;;;3.70;3.30;;;;;;;20.12;53.62;99225.09;6995860;28;20226;-81
2022/05/18 00:22:24;;;;;;;5.30;3.37;;;;;;;20.07;53.25;99216.00;6980103;28;20245;-81
2022/05/18 00:25:45;;;;;;;3.77;3.00;;;;;;;20.23;52.94;99228.78;7003762;28;20208;-82
2022/05/18 00:29:07;;;;;;;3.77;3.20;;;;;;;20.55;51.37;99235.97;7011052;28;20231;-81
2022/05/18 00:32:28;;;;;;;4.20;3.50;;;;;;;20.09;52.80;99252.13;7003165;28;20325;-81
2022/05/18 00:35:50;;;;;;;7.13;3.60;;;;;;;19.98;52.94;99225.72;6985021;28;20290;-81
2022/05/18 00:39:13;;;;;;;6.23;3.47;;;;;;;20.12;52.38;99227.84;7002162;28;20238;-81
2022/05/18 00:42:35;;;;;;;4.33;3.60;;;;;;;20.15;52.36;99243.75;7002543;28;20206;-81
2022/05/18 00:45:56;;;;;;;5.03;3.70;;;;;;;19.15;54.28;99223.13;6980211;28;20206;-81
2022/05/18 00:49:18;;;;;;;4.63;3.70;;;;;;;19.50;54.48;99251.06;7001933;28;20234;-80
2022/05/18 00:52:41;;;;;;;4.13;3.60;;;;;;;19.37;54.38;99245.09;7003107;28;20211;-81
2022/05/18 00:56:07;;;;;;;4.10;3.70;;;;;;;19.16;55.51;99243.94;6986961;28;20233;-81
2022/05/18 00:59:31;;;;;;;5.20;3.90;;;;;;;19.47;54.86;99245.25;6989667;28;20652;-81
2022/05/18 01:02:56;;;;;;;3.93;3.50;;;;;;;19.69;54.00;99235.19;6974987;28;20297;-81
2022/05/18 01:06:23;;;;;;;3.70;3.40;;;;;;;19.20;54.59;99195.88;6997299;28;20244;-81
2022/05/18 01:09:49;;;;;;;4.13;3.70;;;;;;;19.62;53.58;99238.09;6973922;28;20234;-81
2022/05/18 01:13:12;;;;;;;3.97;3.30;;;;;;;19.80;53.51;99236.97;6977054;28;20200;-80
2022/05/18 01:16:33;;;;;;;4.80;3.17;;;;;;;19.83;53.25;99231.00;6993129;28;20595;-81
2022/05/18 01:19:57;;;;;;;4.77;3.50;;;;;;;19.22;54.23;99218.34;6990200;28;20259;-81
2022/05/18 01:23:31;;;;;;;6.20;3.73;;;;;;;19.64;53.86;99238.66;6980958;28;20658;-81
2022/05/18 01:26:54;;;;;;;5.40;3.50;;;;;;;19.64;54.07;99227.72;6980734;28;20237;-80
2022/05/18 01:30:16;;;;;;;3.83;3.53;;;;;;;19.56;54.34;99238.25;6979358;28;20233;-81
2022/05/18 01:33:38;;;;;;;5.13;3.67;;;;;;;19.26;54.80;99248.75;6979851;28;20192;-80
2022/05/18 01:36:59;;;;;;;5.70;3.70;;;;;;;18.91;55.19;99207.16;6988849;28;20210;-81
2022/05/18 01:40:26;;;;;;;4.17;3.73;;;;;;;19.25;55.13;99247.94;6992996;28;20597;-80
2022/05/18 01:43:51;;;;;;;6.87;3.90;;;;;;;19.39;54.18;99249.25;6986136;28;20236;-81
2022/05/18 01:47:12;;;;;;;4.87;3.70;;;;;;;19.42;54.45;99245.19;7007244;28;20277;-81
2022/05/18 01:50:34;;;;;;;3.77;3.40;;;;;;;19.14;55.08;99248.81;7001556;28;20237;-80
2022/05/18 01:53:55;;;;;;;5.43;3.83;;;;;;;19.45;53.80;99231.03;7005658;28;20201;-81
2022/05/18 01:57:17;;;;;;;4.83;3.80;;;;;;;19.53;53.53;99266.13;7004672;28;20243;-80
2022/05/18 02:00:41;;;;;;;4.60;3.83;;;;;;;19.25;54.50;99274.44;7005895;28;20729;-81
2022/05/18 02:04:03;;;;;;;4.30;3.90;;;;;;;19.44;53.85;99273.94;6994104;28;20217;-81
2022/05/18 02:07:24;;;;;;;5.27;3.90;;;;;;;19.10;54.59;99252.31;6979219;28;20689;-80
2022/05/18 02:10:46;;;;;;;5.07;3.70;;;;;;;19.24;54.39;99259.97;6978223;28;20258;-81
2022/05/18 02:14:09;;;;;;;3.80;3.50;;;;;;;19.35;53.46;99267.22;6989684;28;20233;-81
2022/05/18 02:17:32;;;;;;;6.93;4.23;;;;;;;18.92;54.68;99263.50;7006514;28;20678;-81
2022/05/18 02:20:53;;;;;;;4.10;3.70;;;;;;;19.10;54.09;99260.53;7006000;28;20360;-80
2022/05/18 02:24:15;;;;;;;5.20;4.70;;;;;;;17.54;57.67;99226.63;6992360;28;20233;-81
2022/05/18 02:27:36;;;;;;;5.37;4.40;;;;;;;18.16;57.45;99242.09;6978334;28;20199;-81
2022/05/18 02:30:58;;;;;;;4.73;3.70;;;;;;;18.79;55.97;99259.16;6977022;28;20321;-80
2022/05/18 02:34:21;;;;;;;4.20;3.80;;;;;;;18.71;55.78;99248.66;6994318;28;20206;-81
2022/05/18 02:37:43;;;;;;;5.10;4.30;;;;;;;18.19;57.06;99243.50;7006120;28;20205;-81
2022/05/18 02:41:05;;;;;;;4.50;4.10;;;;;;;18.32;57.15;99238.63;7005243;28;20287;-81
2022/05/18 02:44:26;;;;;;;5.77;3.90;;;;;;;18.33;56.97;99251.19;7001890;28;20202;-80
2022/05/18 02:47:48;;;;;;;4.50;4.10;;;;;;;18.37;57.14;99257.00;7005453;28;20203;-81
2022/05/18 02:51:12;;;;;;;5.83;4.40;;;;;;;18.88;55.74;99262.31;7005477;28;20233;-81
2022/05/18 02:58:13;;;;;;;7.60;4.67;;;;;;;18.69;55.95;99278.09;6976829;28;20230;-82
2022/05/18 03:01:34;;;;;;;6.80;4.60;;;;;;;18.73;56.20;99279.28;6979656;28;20214;-81
2022/05/18 03:04:56;;;;;;;7.57;4.60;;;;;;;18.77;56.14;99277.72;6987195;28;20218;-81
2022/05/18 03:08:19;;;;;;;5.43;4.80;;;;;;;18.72;56.46;99279.50;6976507;28;20238;-81
2022/05/18 03:11:40;;;;;;;5.23;4.10;;;;;;;19.07;54.19;99283.72;6977708;28;20729;-80
2022/05/18 03:15:03;;;;;;;4.73;4.33;;;;;;;18.50;55.08;99271.19;6996338;28;20217;-81
2022/05/18 03:18:25;;;;;;;6.00;5.00;;;;;;;18.36;56.61;99283.50;7005921;28;20238;-81
2022/05/18 03:25:27;;;;;;;5.67;4.93;;;;;;;18.42;56.66;99295.31;6998587;28;20230;-80
2022/05/18 03:28:50;;;;;;;5.10;4.60;;;;;;;18.27;57.03;99300.47;7005262;28;20229;-80
2022/05/18 03:32:12;;;;;;;5.97;4.43;;;;;;;18.62;55.44;99299.28;7005911;28;20232;-81
2022/05/18 03:35:33;;;;;;;5.57;5.00;;;;;;;18.36;56.54;99307.22;7004723;28;20210;-81
2022/05/18 03:38:55;;;;;;;6.83;4.70;;;;;;;17.98;57.31;99288.66;6988388;28;20229;-81
2022/05/18 03:42:18;;;;;;;6.93;5.33;;;;;;;18.48;56.88;99310.72;7004428;28;20217;-81
2022/05/18 03:45:40;;;;;;;6.37;5.23;;;;;;;18.14;56.62;99290.66;6979358;28;20234;-81
2022/05/18 03:49:03;;;;;;;5.20;4.70;;;;;;;18.45;56.75;99306.59;6978907;28;20226;-81
2022/05/18 03:52:25;;;;;;;4.90;4.43;;;;;;;18.47;56.09;99300.88;6995028;28;20247;-82
2022/05/18 03:55:47;;;;;;;5.23;4.83;;;;;;;17.96;57.22;99298.16;7010294;28;20581;-81
2022/05/18 03:59:10;;;;;;;5.50;4.67;;;;;;;17.92;58.02;99313.38;7032755;28;20235;-80
2022/05/18 04:02:32;;;;;;;6.90;4.80;;;;;;;18.25;56.59;99310.78;7032595;28;20573;-81
2022/05/18 04:05:54;;;;;;;6.30;5.13;;;;;;;18.29;56.66;99285.47;6997705;28;20209;-80
2022/05/18 04:09:17;;;;;;;5.30;4.80;;;;;;;18.02;56.97;99308.94;6979169;28;20254;-81
2022/05/18 04:12:38;;;;;;;5.60;5.10;;;;;;;18.22;56.84;99306.63;6977244;28;20242;-80
2022/05/18 04:16:01;;;;;;;5.07;4.40;;;;;;;17.86;57.60;99312.41;6991879;28;20194;-81
2022/05/18 04:19:23;;;;;;;5.17;4.70;;;;;;;17.89;57.97;99320.13;7004410;28;20230;-80
2022/05/18 04:22:45;;;;;;;5.67;4.90;;;;;;;17.62;58.72;99293.56;7003544;28;20210;-80
2022/05/18 04:26:07;;;;;;;6.93;4.90;;;;;;;18.12;57.71;99317.34;6977432;28;20233;-80
2022/05/18 04:29:28;;;;;;;8.00;5.17;;;;;;;18.08;57.94;99312.59;7002329;28;20708;-81
2022/05/18 04:32:52;;;;;;;6.10;5.10;;;;;;;18.08;56.84;99320.78;6975723;28;20337;-81
2022/05/18 04:36:13;;;;;;;7.00;5.37;;;;;;;18.19;57.42;99337.16;6976843;28;20206;-80
2022/05/18 04:39:35;;;;;;;7.37;5.80;;;;;;;18.08;57.93;99326.25;6976472;28;20237;-80
2022/05/18 04:42:57;;;;;;;6.43;5.43;;;;;;;18.61;56.19;99338.59;6977067;28;20246;-81
2022/05/18 04:46:18;;;;;;;6.00;5.40;;;;;;;17.98;57.11;99345.97;6977069;28;20211;-81
2022/05/18 04:49:41;;;;;;;8.20;5.00;;;;;;;17.95;58.03;99361.97;6978924;28;20697;-82
2022/05/18 04:53:03;;;;;;;7.67;6.50;;;;;;;18.18;57.84;99361.94;6975642;28;20211;-83
2022/05/18 04:56:25;;;;;;;8.07;5.73;;;;;;;18.43;57.65;99366.09;6989269;28;20220;-81
2022/05/18 04:59:48;;;;;;;6.80;5.10;;;;;;;18.72;56.60;99342.34;6991164;28;20213;-82
2022/05/18 05:03:09;;;;;;;5.80;5.20;;;;;;;18.99;55.66;99365.28;7003031;28;20206;-81
2022/05/18 05:06:32;;;;;;;5.50;4.60;;;;;;;19.51;55.08;99374.97;6977039;28;20210;-81
2022/05/18 05:09:54;;;;;;;6.43;4.57;;;;;;;19.80;53.32;99339.03;6976822;28;20248;-81
2022/05/18 05:13:16;;;;;;;7.03;4.93;;;;;;;20.63;51.92;99374.44;6977234;28;20211;-82
2022/05/18 05:16:38;;;;;;;6.23;4.60;;;;;;;21.08;50.51;99368.38;6983503;28;20203;-82
2022/05/18 05:20:00;;;;;;;5.27;4.60;;;;;;;21.62;48.42;99372.75;6989602;28;20235;-81
2022/05/18 05:23:24;;;;;;;4.57;4.20;;;;;;;21.75;49.52;99383.31;6990869;28;20206;-82
2022/05/18 05:26:46;;;;;;;5.03;4.53;;;;;;;20.89;50.17;99351.75;6983335;28;20210;-82
2022/05/18 05:30:09;;;;;;;7.53;4.73;;;;;;;21.28;50.46;99370.50;6985115;28;20250;-83
2022/05/18 05:33:30;;;;;;;5.63;4.23;;;;;;;22.40;47.76;99366.41;6994516;28;20207;-82
2022/05/18 05:36:52;;;;;;;6.33;4.30;;;;;;;22.08;48.26;99380.22;7004125;28;20218;-82
2022/05/18 05:40:16;;;;;;;7.53;4.33;;;;;;;22.05;47.73;99353.31;6993268;28;20580;-81
2022/05/18 05:43:39;;;;;;;5.87;4.43;;;;;;;22.84;47.50;99376.78;6976483;28;20214;-81
2022/05/18 05:47:03;;;;;;;5.07;4.40;;;;;;;23.33;46.40;99369.78;6994727;28;20665;-82
2022/05/18 05:50:28;;;;;;;6.67;4.50;;;;;;;23.42;46.04;99368.13;7003044;28;20242;-82
2022/05/18 05:53:49;;;;;;;4.57;3.93;;;;;;;24.18;43.97;99371.69;7002799;28;20251;-82
2022/05/18 05:57:12;;;;;;;7.27;4.23;;;;;;;23.64;46.00;99376.94;6992899;28;20217;-82
2022/05/18 06:00:34;;;;;;;5.60;4.60;;;;;;;22.85;47.38;99380.38;6985639;28;20230;-81
2022/05/18 06:03:56;;;;;;;5.13;3.80;;;;;;;22.77;48.28;99378.16;7010593;28;20219;-80
2022/05/18 06:07:17;;;;;;;5.87;3.97;;;;;;;23.41;47.70;99385.75;7017965;28;20223;-82
2022/05/18 06:10:39;;;;;;;5.43;3.47;;;;;;;25.05;43.71;99377.41;7028956;28;20242;-83
2022/05/18 06:14:03;;;;;;;7.53;3.37;;;;;;;25.80;42.03;99382.44;7018819;28;20220;-81
2022/05/18 06:17:25;;;;;;;5.30;3.90;;;;;;;25.05;42.02;99342.38;7017780;28;20206;-82
2022/05/18 06:20:47;;;;;;;5.13;3.90;;;;;;;24.84;43.85;99384.97;6998220;28;20237;-83
2022/05/18 06:24:10;;;;;;;5.43;3.67;;;;;;;25.02;43.17;99309.81;7015478;28;20569;-82
2022/05/18 06:27:32;;;;;;;4.10;3.70;;;;;;;25.54;42.06;99328.53;6996312;28;20247;-83
2022/05/18 06:30:54;;;;;;;5.50;3.90;;;;;;;25.76;42.57;99357.31;7012534;28;20228;-83
2022/05/18 06:34:16;;;;;;;5.27;4.03;;;;;;;26.13;42.38;99374.13;6998820;28;20201;-82
2022/05/18 06:37:38;;;;;;;5.43;3.93;;;;;;;26.39;41.98;99356.16;6985724;28;20200;-81
2022/05/18 06:44:39;;;;;;;5.00;3.37;;;;;;;27.92;39.02;99372.81;7008640;28;20632;-80
2022/05/18 06:48:02;;;;;;;4.00;3.30;;;;;;;27.26;39.14;99366.66;7008187;28;20204;-81
2022/05/18 06:51:25;;;;;;;4.17;3.60;;;;;;;28.31;37.81;99377.94;6984032;28;20240;-81
2022/05/18 06:54:47;;;;;;;4.47;3.13;;;;;;;28.78;35.94;99378.38;6990814;28;20244;-80
2022/05/18 06:58:08;;;;;;;4.57;3.17;;;;;;;28.16;36.62;99370.72;7036224;28;20233;-81
2022/05/18 07:01:30;;;;;;;3.40;2.80;;;;;;;28.68;34.97;99388.88;7030269;28;20209;-82
2022/05/18 07:04:54;;;;;;;3.97;2.70;;;;;;;29.59;32.06;99377.41;7006420;28;20214;-82
2022/05/18 07:08:16;;;;;;;3.10;2.80;;;;;;;29.87;31.41;99373.38;7009182;28;20266;-82
2022/05/18 07:11:37;;;;;;;3.30;2.50;;;;;;;28.87;32.36;99365.41;7006539;28;20716;-80
2022/05/18 07:14:59;;;;;;;6.03;2.50;;;;;;;29.36;32.20;99356.28;6982107;28;20196;-80
2022/05/18 07:18:21;;;;;;;5.47;2.73;;;;;;;30.40;30.47;99376.97;6990962;28;20230;-82
2022/05/18 07:21:45;;;;;;;4.90;3.23;;;;;;;28.72;34.57;99379.59;7002305;28;20237;-82
2022/05/18 07:25:07;;;;;;;4.40;3.00;;;;;;;28.78;34.97;99388.66;6991552;28;20249;-80
2022/05/18 07:28:29;;;;;;;4.60;3.03;;;;;;;27.93;36.03;99387.47;7006816;28;20577;-80
2022/05/18 07:35:29;;;;;;;4.33;2.87;;;;;;;29.17;34.05;99380.59;6968370;28;20202;-81
2022/05/18 07:38:52;;;;;;;8.30;3.00;;;;;;;27.78;36.74;99376.66;6989133;28;20233;-80
2022/05/18 07:42:13;;;;;;;5.37;3.03;;;;;;;27.35;37.57;99372.34;6999257;28;20678;-81
2022/05/18 07:45:35;;;;;;;5.30;3.23;;;;;;;27.06;37.92;99378.00;6986361;28;20652;-80
2022/05/18 07:48:57;;;;;;;3.87;2.40;;;;;;;28.43;35.61;99384.63;7004981;28;20236;-80
2022/05/18 07:52:18;;;;;;;5.63;2.93;;;;;;;28.06;36.52;99384.75;7004968;28;20259;-80
2022/05/18 07:55:41;;;;;;;4.20;3.00;;;;;;;28.15;36.57;99373.78;7004038;28;20204;-80
2022/05/18 07:59:03;;;;;;;5.07;2.87;;;;;;;27.51;37.44;99382.91;7033506;28;20225;-80
2022/05/18 08:02:25;;;;;;;4.97;3.00;;;;;;;28.48;35.57;99367.88;7033655;28;20234;-80
2022/05/18 08:05:47;;;;;;;3.90;2.80;;;;;;;28.53;35.46;99376.13;7033496;28;20181;-80
2022/05/18 08:09:08;;;;;;;4.10;3.20;;;;;;;28.55;35.89;99371.06;7025883;28;20634;-80
2022/05/18 08:16:11;;;;;;;5.63;2.90;;;;;;;29.75;32.25;99367.56;6977852;28;20716;-80
2022/05/18 08:19:32;;;;;;;3.10;2.83;;;;;;;29.88;31.14;99364.72;6977298;28;20348;-80
2022/05/18 08:22:54;;;;;;;6.80;2.83;;;;;;;31.48;30.03;99364.88;6978555;28;20209;-81
2022/05/18 08:26:15;;;;;;;6.37;3.20;;;;;;;30.73;32.03;99365.19;6993741;28;20207;-80
2022/05/18 08:29:38;;;;;;;2.97;2.63;;;;;;;31.61;29.43;99356.31;6995205;28;20239;-80
2022/05/18 08:33:00;;;;;;;6.07;2.97;;;;;;;32.38;29.25;99348.66;6992830;28;20225;-80
2022/05/18 08:36:24;;;;;;;3.77;2.83;;;;;;;33.00;27.07;99363.66;6991622;28;20224;-80
2022/05/18 08:39:45;;;;;;;4.97;2.80;;;;;;;32.94;26.68;99365.00;6991440;28;20225;-80
2022/05/18 08:43:09;;;;;;;3.10;2.80;;;;;;;32.61;28.06;99369.56;7004771;28;20232;-80
2022/05/18 08:46:43;;;;;;;5.27;3.13;;;;;;;31.78;29.33;99369.47;7006056;28;20375;-80
2022/05/18 08:50:07;;;;;;;4.37;3.20;;;;;;;30.12;31.64;99381.91;6994320;28;20224;-80
2022/05/18 08:53:35;;;;;;;3.33;2.80;;;;;;;31.67;29.51;99368.94;6979117;28;20227;-80
2022/05/18 08:56:58;;;;;;;3.43;2.83;;;;;;;31.80;28.82;99364.38;6992616;28;20215;-80
2022/05/18 09:00:22;;;;;;;4.43;2.90;;;;;;;31.15;30.18;99369.22;6992473;28;20318;-80
2022/05/18 09:03:49;;;;;;;3.90;2.77;;;;;;;30.27;31.18;99375.13;6981181;28;20563;-81
2022/05/18 09:07:13;;;;;;;3.83;2.70;;;;;;;31.14;30.00;99364.81;6986459;28;20208;-81
2022/05/18 09:10:37;;;;;;;2.87;2.57;;;;;;;32.59;27.31;99363.53;7002055;28;20596;-80
2022/05/18 09:13:58;;;;;;;5.07;2.70;;;;;;;32.31;27.76;99361.50;7005050;28;20769;-80
2022/05/18 09:17:27;;;;;;;5.83;2.83;;;;;;;33.12;27.19;99368.50;7005214;28;20209;-80
2022/05/18 09:20:56;;;;;;;7.17;2.70;;;;;;;33.87;25.94;99334.69;7002231;28;20229;-80
2022/05/18 09:24:32;;;;;;;4.90;2.80;;;;;;;33.39;25.46;99354.88;6987543;28;20574;-80
2022/05/18 09:28:08;;;;;;;2.77;2.47;;;;;;;31.85;24.81;99364.22;6984402;28;20218;-80
2022/05/18 09:31:43;;;;;;;3.43;2.47;;;;;;;31.31;26.36;99368.44;6991896;28;20294;-79
2022/05/18 09:35:16;;;;;;;3.63;2.70;;;;;;;32.34;25.38;99361.66;6991590;28;20219;-80
2022/05/18 09:38:42;;;;;;;2.83;2.57;;;;;;;32.42;24.78;99358.00;6981752;28;20257;-85
2022/05/18 09:42:07;;;;;;;2.80;2.40;;;;;;;32.43;26.42;99358.84;6985439;28;20300;-83
2022/05/18 09:45:31;;;;;;;2.40;2.20;;;;;;;33.33;25.13;99321.84;6992540;28;20430;-83
2022/05/18 09:48:56;;;;;;;3.67;2.57;;;;;;;33.24;25.28;99340.63;6995174;28;20218;-82
2022/05/18 09:52:20;;;;;;;4.70;2.57;;;;;;;31.97;26.04;99362.38;6989869;28;20642;-82
2022/05/18 09:55:45;;;;;;;9.57;5.13;;;;;;;31.92;27.16;99351.41;6983576;28;20205;-81
2022/05/18 09:59:11;;;;;;;5.40;2.63;;;;;;;32.48;25.95;99356.66;7001400;28;20858;-81
2022/05/18 10:10:02;;;;;;;4.00;2.20;;;;;;;32.99;25.30;99345.25;7017584;28;20222;-81
2022/05/18 10:13:28;;;;;;;2.90;2.37;;;;;;;32.66;24.21;99340.66;7024012;28;20205;-83
2022/05/18 10:17:01;;;;;;;3.43;2.30;;;;;;;33.51;24.40;99323.34;6998519;28;20252;-80
2022/05/18 10:20:25;;;;;;;3.73;2.60;;;;;;;32.83;24.74;99329.44;7002585;28;20469;-81
2022/05/18 10:23:55;;;;;;;2.70;2.20;;;;;;;30.87;26.51;99326.91;6994978;28;20354;-81
2022/05/18 10:27:24;;;;;;;2.20;2.00;;;;;;;29.72;27.19;99334.84;7011405;28;20224;-82
2022/05/18 10:30:56;;;;;;;5.80;2.00;;;;;;;31.67;24.80;99335.47;6982735;28;20229;-80
2022/05/18 10:34:24;;;;;;;2.80;2.20;;;;;;;31.68;24.97;99292.53;6983158;28;20213;-80
2022/05/18 10:37:46;;;;;;;2.97;2.20;;;;;;;31.22;25.22;99311.91;6983989;28;20208;-81
2022/05/18 10:41:14;;;;;;;3.40;2.13;;;;;;;30.84;25.87;99326.75;6982105;28;20217;-81
2022/05/18 10:44:36;;;;;;;3.33;2.17;;;;;;;32.13;23.82;99312.44;6991839;28;20834;-81
2022/05/18 10:48:06;;;;;;;3.37;1.93;;;;;;;32.30;24.50;99307.63;6982300;28;20651;-81
2022/05/18 10:51:32;;;;;;;3.67;2.10;;;;;;;31.27;24.09;99314.53;6982589;28;20326;-82
2022/05/18 10:54:56;;;;;;;4.97;2.20;;;;;;;31.05;24.51;99323.00;6981723;28;20558;-80
2022/05/18 10:58:24;;;;;;;3.50;2.13;;;;;;;32.15;23.85;99308.19;6982101;28;20234;-84
2022/05/18 11:01:55;;;;;;;2.13;1.93;;;;;;;31.27;25.45;99317.31;6997314;28;20216;-79
2022/05/18 11:05:22;;;;;;;3.37;2.10;;;;;;;31.78;24.24;99310.91;7001025;28;20213;-79
2022/05/18 11:08:44;;;;;;;2.50;2.30;;;;;;;31.35;25.08;99290.56;6981787;28;20226;-79
2022/05/18 11:12:12;;;;;;;2.83;1.83;;;;;;;30.93;24.08;99308.06;6993798;28;20263;-79
2022/05/18 11:15:42;;;;;;;4.03;2.30;;;;;;;32.89;23.64;99292.56;7008529;28;20201;-79
2022/05/18 11:19:10;;;;;;;2.40;2.00;;;;;;;33.25;22.19;99286.38;6988379;28;20236;-80
2022/05/18 11:22:37;;;;;;;3.37;1.93;;;;;;;33.44;22.23;99281.94;6980834;28;20571;-79
2022/05/18 11:26:09;;;;;;;3.53;2.47;;;;;;;33.73;22.25;99290.19;7003845;28;20215;-79
2022/05/18 11:29:50;;;;;;;2.40;1.73;;;;;;;33.24;21.95;99279.13;7006228;28;20229;-79
2022/05/18 11:33:20;;;;;;;2.57;1.90;;;;;;;33.76;21.73;99288.69;6981067;28;20307;-79
2022/05/18 11:36:47;;;;;;;3.67;1.93;;;;;;;33.98;21.17;99279.94;6987829;28;20243;-79
2022/05/18 11:40:16;;;;;;;2.83;2.13;;;;;;;34.35;21.74;99268.47;6994643;28;20229;-79
2022/05/18 11:43:46;;;;;;;3.10;2.10;;;;;;;34.66;21.52;99277.06;6979513;28;20210;-79
2022/05/18 11:47:23;;;;;;;2.77;1.90;;;;;;;34.96;19.79;99264.44;6979554;28;20202;-79
2022/05/18 11:50:53;;;;;;;4.77;2.30;;;;;;;34.53;22.12;99266.22;6977149;28;20680;-79
2022/05/18 11:54:24;;;;;;;3.50;2.53;;;;;;;34.60;21.05;99256.06;7006611;28;20213;-79
2022/05/18 11:57:53;;;;;;;2.20;2.00;;;;;;;35.05;20.08;99265.13;7004942;28;20208;-79
2022/05/18 12:01:23;;;;;;;4.10;2.13;;;;;;;34.46;20.93;99261.22;6996561;28;20619;-79
2022/05/18 12:05:03;;;;;;;2.53;2.17;;;;;;;34.24;21.57;99244.03;6989602;28;20232;-79
2022/05/18 12:08:45;;;;;;;2.57;2.20;;;;;;;33.72;22.70;99266.19;6977697;28;20231;-78
2022/05/18 12:12:13;;;;;;;8.80;2.70;;;;;;;33.50;22.86;99230.22;6977003;28;20230;-79
2022/05/18 12:15:43;;;;;;;2.07;1.97;;;;;;;33.89;22.63;99240.84;6977986;28;20201;-79
2022/05/18 12:19:09;;;;;;;2.27;2.10;;;;;;;34.87;21.67;99243.34;6978244;28;20222;-79
2022/05/18 12:22:33;;;;;;;2.43;2.23;;;;;;;34.65;20.58;99235.41;6978368;28;20241;-79
2022/05/18 12:25:55;;;;;;;3.13;2.63;;;;;;;34.43;21.25;99242.31;6978461;28;20686;-79
2022/05/18 12:29:19;;;;;;;2.57;2.27;;;;;;;32.08;23.65;99226.91;6995613;28;20233;-80
2022/05/18 12:32:43;;;;;;;3.40;2.40;;;;;;;32.05;23.24;99240.72;6979782;28;20240;-80
2022/05/18 12:36:06;;;;;;;2.63;2.03;;;;;;;32.95;23.18;99234.50;6979409;28;21065;-79
2022/05/18 12:39:43;;;;;;;1.73;1.60;;;;;;;32.28;21.11;99223.44;6978850;28;20236;-79
2022/05/18 12:43:14;;;;;;;2.47;2.00;;;;;;;32.75;23.08;99232.47;6979427;28;20241;-79
2022/05/18 12:46:38;;;;;;;2.90;2.03;;;;;;;33.56;23.08;99230.84;6989687;28;20208;-79
2022/05/18 12:50:04;;;;;;;3.63;2.10;;;;;;;34.45;21.70;99242.78;6977378;28;20225;-79
2022/05/18 12:53:28;;;;;;;3.77;2.40;;;;;;;34.31;22.30;99217.09;6985846;28;20698;-79
2022/05/18 12:57:11;;;;;;;3.07;2.30;;;;;;;34.13;23.18;99229.69;7029062;28;20209;-79
2022/05/18 13:00:52;;;;;;;4.00;2.10;;;;;;;34.27;21.92;99232.16;7032689;28;20225;-79
2022/05/18 13:04:40;;;;;;;2.17;1.97;;;;;;;33.96;21.38;99223.50;7033008;28;20249;-80
2022/05/18 13:08:12;;;;;;;2.93;2.10;;;;;;;33.92;21.89;99205.75;7017919;28;20216;-80
2022/05/18 13:11:41;;;;;;;2.43;1.70;;;;;;;34.18;20.72;99226.66;7004677;28;20200;-79
2022/05/18 13:15:07;;;;;;;2.90;2.17;;;;;;;34.85;21.04;99224.06;7008728;28;20205;-80
2022/05/18 13:18:32;;;;;;;3.10;2.03;;;;;;;34.53;20.49;99218.59;7012490;28;20237;-80
2022/05/18 13:22:00;;;;;;;2.27;1.93;;;;;;;34.67;21.24;99219.06;7012922;28;20206;-80
2022/05/18 13:25:27;;;;;;;2.20;1.57;;;;;;;33.88;20.72;99216.81;7015365;28;20190;-79
2022/05/18 13:28:49;;;;;;;3.87;1.80;;;;;;;34.47;20.18;99189.19;6997309;28;20447;-79
2022/05/18 13:32:13;;;;;;;3.27;2.13;;;;;;;33.76;21.24;99200.00;7007151;28;20217;-79
2022/05/18 13:35:36;;;;;;;1.80;1.70;;;;;;;33.49;21.89;99195.03;6988170;28;20244;-79
2022/05/18 13:38:57;;;;;;;1.80;1.70;;;;;;;34.70;20.45;99204.34;7009541;28;20229;-79
2022/05/18 13:42:22;;;;;;;1.93;1.60;;;;;;;34.48;20.46;99185.25;7010156;28;20225;-79
2022/05/18 13:45:46;;;;;;;2.33;2.13;;;;;;;34.32;21.10;99168.34;7010691;28;20680;-80
2022/05/18 13:49:09;;;;;;;2.20;1.93;;;;;;;34.42;22.01;99192.28;7009644;28;20257;-79
2022/05/18 13:52:33;;;;;;;4.73;2.10;;;;;;;34.88;21.90;99178.53;7004731;28;20217;-79
2022/05/18 13:55:56;;;;;;;5.10;2.03;;;;;;;33.31;23.34;99182.38;7018798;28;20205;-83
2022/05/18 13:59:22;;;;;;;2.47;2.27;;;;;;;33.85;22.90;99189.53;7038025;28;20319;-80
2022/05/18 14:02:43;;;;;;;5.77;1.90;;;;;;;33.75;23.31;99162.00;7037946;28;20239;-82
2022/05/18 14:06:08;;;;;;;2.47;2.27;;;;;;;34.36;22.29;99174.06;7038330;28;20871;-79
2022/05/18 14:09:32;;;;;;;6.30;2.30;;;;;;;33.61;23.65;99163.50;7000571;28;20597;-79
2022/05/18 14:12:57;;;;;;;2.50;2.30;;;;;;;33.88;22.45;99176.81;6983176;28;20218;-79
2022/05/18 14:16:26;;;;;;;2.40;2.20;;;;;;;31.69;25.55;99188.19;6983351;28;20402;-80
2022/05/18 14:19:51;;;;;;;2.60;2.40;;;;;;;32.05;24.72;99170.97;6982288;28;20230;-80
2022/05/18 14:23:20;;;;;;;3.50;2.27;;;;;;;32.96;24.55;99177.47;6982028;28;20205;-80
2022/05/18 14:26:45;;;;;;;4.60;2.57;;;;;;;33.07;23.70;99178.69;6983831;28;20226;-79
2022/05/18 14:30:08;;;;;;;5.43;2.27;;;;;;;32.33;24.17;99180.53;7003511;28;20264;-80
2022/05/18 14:33:42;;;;;;;2.97;2.10;;;;;;;32.18;24.15;99190.28;6984563;28;20238;-79
2022/05/18 14:37:10;;;;;;;2.20;2.00;;;;;;;32.64;24.79;99147.44;6984096;28;20335;-79
2022/05/18 14:40:34;;;;;;;3.20;2.13;;;;;;;33.17;24.11;99172.63;6985810;28;20252;-79
2022/05/18 14:43:56;;;;;;;2.60;2.40;;;;;;;32.92;23.79;99143.81;7009875;28;20275;-79
2022/05/18 14:47:26;;;;;;;4.10;2.30;;;;;;;33.79;23.99;99162.13;7010591;28;20780;-79
2022/05/18 14:50:50;;;;;;;3.10;2.30;;;;;;;32.24;24.48;99160.19;7002087;28;20372;-80
2022/05/18 14:54:16;;;;;;;2.57;2.37;;;;;;;32.91;24.61;99163.69;6982586;28;20570;-81
2022/05/18 14:57:39;;;;;;;4.33;2.30;;;;;;;32.21;25.23;99158.91;6985389;28;20231;-81
2022/05/18 15:01:02;;;;;;;3.33;2.30;;;;;;;33.21;23.30;99132.50;6994853;28;20255;-87
2022/05/18 15:04:28;;;;;;;4.50;2.50;;;;;;;32.76;23.06;99153.13;6997049;28;20205;-80
2022/05/18 15:07:54;;;;;;;2.77;2.40;;;;;;;32.00;24.31;99149.66;6997900;28;20201;-79
2022/05/18 15:11:18;;;;;;;2.90;2.13;;;;;;;33.22;24.42;99153.69;6991448;28;20226;-80
2022/05/18 15:14:43;;;;;;;4.00;2.40;;;;;;;33.37;24.16;99163.44;6994448;28;20229;-82
2022/05/18 15:18:17;;;;;;;2.70;2.33;;;;;;;33.15;24.19;99153.44;6998033;28;20236;-80
2022/05/18 15:21:42;;;;;;;4.43;2.27;;;;;;;33.42;23.79;99152.03;7006142;28;20217;-79
2022/05/18 15:25:29;;;;;;;3.97;2.63;;;;;;;33.01;24.32;99149.31;6987453;28;20197;-80
2022/05/18 15:28:56;;;;;;;2.43;2.10;;;;;;;33.27;24.54;99147.09;7004024;28;20226;-80
2022/05/18 15:32:24;;;;;;;2.83;2.53;;;;;;;32.80;24.45;99145.72;7006267;28;20280;-80
2022/05/18 15:35:48;;;;;;;3.17;2.50;;;;;;;33.57;24.07;99142.97;6986539;28;20266;-80
2022/05/18 15:39:11;;;;;;;4.37;2.43;;;;;;;33.01;24.31;99140.94;6978594;28;20278;-79
2022/05/18 15:42:34;;;;;;;4.43;2.57;;;;;;;32.99;24.51;99137.63;6999972;28;20213;-79
2022/05/18 15:45:59;;;;;;;3.43;2.57;;;;;;;32.95;25.30;99137.50;7003423;28;20210;-79
2022/05/18 15:49:24;;;;;;;3.70;2.30;;;;;;;32.76;25.01;99147.53;6980040;28;20249;-81
2022/05/18 15:52:47;;;;;;;3.50;2.43;;;;;;;32.97;25.11;99142.75;6980359;28;20233;-79
2022/05/18 15:56:11;;;;;;;3.57;3.07;;;;;;;32.01;26.18;99142.94;6980103;28;20265;-79
2022/05/18 15:59:34;;;;;;;4.60;3.00;;;;;;;31.74;26.32;99128.63;6978559;28;20218;-79
2022/05/18 16:02:56;;;;;;;2.87;2.50;;;;;;;32.22;26.16;99135.44;6978262;28;20213;-78
2022/05/18 16:06:22;;;;;;;3.70;2.57;;;;;;;32.72;25.12;99135.41;6978383;28;20252;-78
2022/05/18 16:09:44;;;;;;;3.00;2.60;;;;;;;32.68;25.27;99134.44;6995396;28;20616;-79
2022/05/18 16:13:06;;;;;;;5.70;2.40;;;;;;;32.38;26.24;99133.69;7004019;28;20263;-79
2022/05/18 16:16:29;;;;;;;4.80;3.00;;;;;;;32.13;26.97;99137.44;6978898;28;20205;-78
2022/05/18 16:19:51;;;;;;;3.57;2.63;;;;;;;32.11;26.34;99139.75;6978364;28;20232;-79
2022/05/18 16:23:15;;;;;;;3.83;2.60;;;;;;;31.80;26.98;99144.03;6989449;28;20291;-78
2022/05/18 16:26:37;;;;;;;3.53;2.77;;;;;;;31.15;28.31;99132.41;6981489;28;20196;-79
2022/05/18 16:29:59;;;;;;;2.87;2.40;;;;;;;31.13;27.57;99116.00;7013679;28;20224;-78